Time;durP1;ratioP1;P1;durP2;ratioP2;P2;SDS_P1;SDS_P2;PMS_P1;PMS_P2;Temp;Humidity;BMP_temperature;BMP_pressure;BME280_temperature;BME280_humidity;BME280_pressure;Samples;Min_cycle;Max_cycle;Signal;HPM_P1;HPM_P2
2022/11/10 00:01:50;;;;;;;19.50;3.90;;;;;;;;;;5278252;28;20041;-79
2022/11/10 00:04:21;;;;;;;15.67;3.63;;;;;;;;;;5264229;28;20295;-79
2022/11/10 00:06:52;;;;;;;14.97;3.83;;;;;;;;;;5277496;28;20282;-78
2022/11/10 00:09:23;;;;;;;16.90;3.57;;;;;;;;;;5276454;28;20025;-78
2022/11/10 00:11:54;;;;;;;24.10;3.97;;;;;;;;;;5278469;28;20283;-78
2022/11/10 00:17:16;;;;;;;12.88;3.63;;;;;;;;;;5279515;28;20760;-78
2022/11/10 00:19:47;;;;;;;19.58;3.83;;;;;;;;;;5262867;28;20048;-78
2022/11/10 00:22:18;;;;;;;25.03;4.07;;;;;;;;;;5280841;28;20469;-78
2022/11/10 00:24:49;;;;;;;19.97;4.00;;;;;;;;;;5279933;28;20317;-79
2022/11/10 00:27:20;;;;;;;20.02;4.05;;;;;;;;;;5280183;28;20276;-79
2022/11/10 00:29:52;;;;;;;17.97;3.70;;;;;;;;;;5280669;28;21583;-78
2022/11/10 00:32:26;;;;;;;17.35;4.55;;;;;;;;;;5277512;28;20323;-78
2022/11/10 00:34:57;;;;;;;17.98;3.60;;;;;;;;;;5278803;28;20037;-78
2022/11/10 00:37:28;;;;;;;14.93;3.53;;;;;;;;;;5280512;28;20039;-78
2022/11/10 00:40:00;;;;;;;20.10;4.35;;;;;;;;;;5277659;28;21106;-78
2022/11/10 00:42:31;;;;;;;14.97;3.93;;;;;;;;;;5278277;28;20124;-78
2022/11/10 00:45:02;;;;;;;14.25;3.42;;;;;;;;;;5260010;28;20679;-78
2022/11/10 00:47:33;;;;;;;23.00;4.28;;;;;;;;;;5279445;28;20044;-78
2022/11/10 00:50:05;;;;;;;11.67;3.13;;;;;;;;;;5278051;28;20044;-78
2022/11/10 00:52:36;;;;;;;23.98;3.90;;;;;;;;;;5277183;28;20271;-78
2022/11/10 00:55:07;;;;;;;19.23;4.33;;;;;;;;;;5276095;28;20390;-77
2022/11/10 00:57:39;;;;;;;20.27;3.90;;;;;;;;;;5278140;28;20288;-81
2022/11/10 01:00:10;;;;;;;17.70;4.15;;;;;;;;;;5275069;28;20133;-78
2022/11/10 01:02:42;;;;;;;22.35;4.47;;;;;;;;;;5277492;28;20036;-78
2022/11/10 01:05:13;;;;;;;17.95;3.95;;;;;;;;;;5279794;28;20021;-78
2022/11/10 01:07:44;;;;;;;21.37;3.97;;;;;;;;;;5277690;28;20123;-78
2022/11/10 01:10:15;;;;;;;12.83;4.30;;;;;;;;;;5276649;28;20283;-78
2022/11/10 01:12:46;;;;;;;19.85;4.30;;;;;;;;;;5278986;28;20330;-78
2022/11/10 01:15:19;;;;;;;17.07;4.03;;;;;;;;;;5277972;28;20025;-80
2022/11/10 01:17:51;;;;;;;18.35;4.25;;;;;;;;;;5276145;28;20623;-78
2022/11/10 01:20:22;;;;;;;22.35;4.80;;;;;;;;;;5276340;28;20029;-78
2022/11/10 01:22:54;;;;;;;12.75;3.40;;;;;;;;;;5277090;28;20048;-78
2022/11/10 01:25:25;;;;;;;14.20;2.90;;;;;;;;;;5278719;28;20025;-79
2022/11/10 01:27:56;;;;;;;20.55;3.67;;;;;;;;;;5278658;28;20036;-81
2022/11/10 01:30:27;;;;;;;15.93;4.17;;;;;;;;;;5262431;28;20088;-78
2022/11/10 01:32:58;;;;;;;17.57;4.33;;;;;;;;;;5277942;28;20283;-80
2022/11/10 01:35:30;;;;;;;19.63;3.93;;;;;;;;;;5278486;28;20294;-79
2022/11/10 01:38:01;;;;;;;19.42;3.42;;;;;;;;;;5278216;28;20291;-79
2022/11/10 01:40:32;;;;;;;19.73;3.87;;;;;;;;;;5275572;28;20119;-79
2022/11/10 01:43:03;;;;;;;19.20;3.67;;;;;;;;;;5277080;28;20296;-79
2022/11/10 01:45:43;;;;;;;17.60;3.70;;;;;;;;;;5264408;28;20600;-79
2022/11/10 01:48:23;;;;;;;12.02;3.28;;;;;;;;;;5279087;28;20740;-79
2022/11/10 01:50:56;;;;;;;15.27;3.40;;;;;;;;;;5274462;28;20409;-79
2022/11/10 01:53:28;;;;;;;17.83;4.20;;;;;;;;;;5273892;28;20037;-79
2022/11/10 01:56:00;;;;;;;21.48;4.03;;;;;;;;;;5276942;28;20025;-79
2022/11/10 01:58:33;;;;;;;20.02;4.85;;;;;;;;;;5273635;28;20033;-79
2022/11/10 02:01:05;;;;;;;17.50;4.05;;;;;;;;;;5276845;28;20098;-79
2022/11/10 02:03:43;;;;;;;14.52;4.00;;;;;;;;;;5274956;28;20022;-78
2022/11/10 02:06:16;;;;;;;18.85;3.88;;;;;;;;;;5276852;28;20021;-79
2022/11/10 02:08:47;;;;;;;20.92;4.90;;;;;;;;;;5275382;28;20108;-79
2022/11/10 02:11:19;;;;;;;18.10;4.00;;;;;;;;;;5278132;28;20039;-80
2022/11/10 02:13:51;;;;;;;16.52;3.95;;;;;;;;;;5275743;28;20086;-79
2022/11/10 02:16:22;;;;;;;17.65;3.50;;;;;;;;;;5274645;28;20037;-79
2022/11/10 02:18:53;;;;;;;12.23;3.97;;;;;;;;;;5275683;28;20617;-79
2022/11/10 02:21:24;;;;;;;16.03;3.50;;;;;;;;;;5276226;28;20500;-79
2022/11/10 02:23:56;;;;;;;20.57;4.07;;;;;;;;;;5276861;28;20282;-79
2022/11/10 02:26:28;;;;;;;15.43;3.77;;;;;;;;;;5278619;28;21429;-79
2022/11/10 02:28:59;;;;;;;18.58;4.28;;;;;;;;;;5275618;28;20236;-79
2022/11/10 02:31:31;;;;;;;12.77;3.70;;;;;;;;;;5275602;28;20043;-79
2022/11/10 02:34:02;;;;;;;19.80;4.03;;;;;;;;;;5276539;28;20271;-79
2022/11/10 02:36:33;;;;;;;17.27;4.70;;;;;;;;;;5278037;28;20348;-79
2022/11/10 02:39:04;;;;;;;21.83;4.13;;;;;;;;;;5277575;28;20268;-79
2022/11/10 02:41:35;;;;;;;18.92;3.78;;;;;;;;;;5278739;28;20041;-79
2022/11/10 02:44:07;;;;;;;18.58;3.47;;;;;;;;;;5274639;28;20051;-79
2022/11/10 02:46:38;;;;;;;15.20;3.15;;;;;;;;;;5277184;28;20569;-79
2022/11/10 02:49:09;;;;;;;19.23;3.67;;;;;;;;;;5274840;28;20033;-79
2022/11/10 02:51:40;;;;;;;14.63;3.20;;;;;;;;;;5280878;28;20060;-79
2022/11/10 02:54:12;;;;;;;15.83;3.67;;;;;;;;;;5274641;28;20301;-79
2022/11/10 02:56:43;;;;;;;21.73;4.40;;;;;;;;;;5274832;28;20041;-79
2022/11/10 02:59:14;;;;;;;16.50;3.50;;;;;;;;;;5278338;28;20029;-79
2022/11/10 03:01:45;;;;;;;21.55;3.65;;;;;;;;;;5258401;28;20288;-79
2022/11/10 03:04:16;;;;;;;17.42;4.18;;;;;;;;;;5276672;28;20076;-79
2022/11/10 03:06:48;;;;;;;15.57;3.23;;;;;;;;;;5277039;28;20032;-79
2022/11/10 03:09:19;;;;;;;19.75;3.58;;;;;;;;;;5277937;28;20276;-79
2022/11/10 03:11:50;;;;;;;20.70;3.80;;;;;;;;;;5262885;28;20120;-79
2022/11/10 03:14:21;;;;;;;16.55;3.85;;;;;;;;;;5276573;28;20033;-79
2022/11/10 03:16:52;;;;;;;17.20;3.38;;;;;;;;;;5279682;28;20029;-78
2022/11/10 03:19:24;;;;;;;22.15;4.00;;;;;;;;;;5280417;28;20021;-78
2022/11/10 03:21:55;;;;;;;16.40;3.97;;;;;;;;;;5279160;28;20037;-78
2022/11/10 03:24:26;;;;;;;19.63;3.95;;;;;;;;;;5282508;28;20358;-78
2022/11/10 03:26:57;;;;;;;18.13;3.95;;;;;;;;;;5282166;28;20029;-78
2022/11/10 03:29:29;;;;;;;20.57;3.90;;;;;;;;;;5279548;28;20428;-79
2022/11/10 03:32:00;;;;;;;17.00;3.75;;;;;;;;;;5281217;28;20048;-78
2022/11/10 03:34:31;;;;;;;17.50;3.33;;;;;;;;;;5280270;28;20032;-79
2022/11/10 03:37:02;;;;;;;20.10;4.20;;;;;;;;;;5280357;28;20381;-78
2022/11/10 03:39:33;;;;;;;17.73;3.60;;;;;;;;;;5261814;28;20284;-78
2022/11/10 03:42:04;;;;;;;17.60;3.90;;;;;;;;;;5282299;28;20667;-78
2022/11/10 03:44:36;;;;;;;20.65;3.88;;;;;;;;;;5264292;28;20323;-79
2022/11/10 03:47:07;;;;;;;19.20;3.40;;;;;;;;;;5280892;28;20388;-78
2022/11/10 03:49:38;;;;;;;15.70;3.60;;;;;;;;;;5279486;28;20338;-78
2022/11/10 03:52:09;;;;;;;20.33;4.00;;;;;;;;;;5276987;28;20276;-78
2022/11/10 03:54:41;;;;;;;17.93;4.40;;;;;;;;;;5279636;28;20032;-78
2022/11/10 03:57:12;;;;;;;16.73;3.45;;;;;;;;;;5262509;28;20280;-78
2022/11/10 03:59:44;;;;;;;25.52;4.13;;;;;;;;;;5277431;28;20573;-77
2022/11/10 04:02:15;;;;;;;16.38;4.28;;;;;;;;;;5278913;28;20037;-79
2022/11/10 04:10:26;;;;;;;18.13;4.28;;;;;;;;;;5278080;28;20378;-79
2022/11/10 04:15:47;;;;;;;17.75;4.25;;;;;;;;;;5278411;28;20449;-79
2022/11/10 04:18:23;;;;;;;16.15;4.45;;;;;;;;;;5259797;28;20079;-79
2022/11/10 04:20:55;;;;;;;18.23;3.40;;;;;;;;;;5277992;28;20416;-79
2022/11/10 04:23:33;;;;;;;23.63;5.18;;;;;;;;;;5275313;28;20037;-79
2022/11/10 04:26:27;;;;;;;20.77;5.00;;;;;;;;;;5277829;28;20030;-79
2022/11/10 04:28:59;;;;;;;25.98;4.72;;;;;;;;;;5274702;28;20133;-79
2022/11/10 04:31:31;;;;;;;23.35;5.05;;;;;;;;;;5278092;28;20054;-79
2022/11/10 04:34:03;;;;;;;20.55;5.32;;;;;;;;;;5276377;28;20107;-79
2022/11/10 04:36:36;;;;;;;18.65;5.80;;;;;;;;;;5277506;28;20144;-79
2022/11/10 04:39:08;;;;;;;24.88;5.60;;;;;;;;;;5281512;28;20473;-79
2022/11/10 04:41:39;;;;;;;22.52;4.60;;;;;;;;;;5279792;28;20133;-79
2022/11/10 04:44:10;;;;;;;21.02;4.03;;;;;;;;;;5280178;28;20321;-78
2022/11/10 04:46:42;;;;;;;16.25;4.65;;;;;;;;;;5276169;28;20170;-78
2022/11/10 04:49:14;;;;;;;19.52;4.15;;;;;;;;;;5275876;28;20025;-78
2022/11/10 04:51:45;;;;;;;18.95;4.72;;;;;;;;;;5278102;28;20040;-78
2022/11/10 04:54:16;;;;;;;23.23;4.43;;;;;;;;;;5274860;28;20386;-78
2022/11/10 04:56:47;;;;;;;23.17;4.00;;;;;;;;;;5279730;28;20433;-78
2022/11/10 04:59:18;;;;;;;22.83;4.80;;;;;;;;;;5278538;28;20025;-78
2022/11/10 05:01:50;;;;;;;19.33;4.15;;;;;;;;;;5260533;28;20036;-78
2022/11/10 05:04:21;;;;;;;21.47;4.27;;;;;;;;;;5277469;28;20060;-78
2022/11/10 05:06:52;;;;;;;19.63;4.70;;;;;;;;;;5277954;28;20671;-79
2022/11/10 05:09:23;;;;;;;14.77;3.92;;;;;;;;;;5275337;28;20100;-79
2022/11/10 05:11:55;;;;;;;16.85;3.88;;;;;;;;;;5280065;28;20103;-79
2022/11/10 05:14:26;;;;;;;21.17;4.87;;;;;;;;;;5275665;28;20029;-79
2022/11/10 05:16:57;;;;;;;20.37;4.00;;;;;;;;;;5278562;28;21080;-79
2022/11/10 05:19:28;;;;;;;26.80;4.77;;;;;;;;;;5284002;28;20257;-78
2022/11/10 05:21:59;;;;;;;26.00;4.00;;;;;;;;;;5279856;28;20286;-78
2022/11/10 05:24:31;;;;;;;21.20;4.40;;;;;;;;;;5275180;28;20333;-79
2022/11/10 05:27:02;;;;;;;20.57;4.03;;;;;;;;;;5277258;28;20291;-79
2022/11/10 05:29:33;;;;;;;18.33;4.15;;;;;;;;;;5276454;28;20284;-79
2022/11/10 05:32:04;;;;;;;20.60;3.85;;;;;;;;;;5273827;28;20039;-80
2022/11/10 05:34:36;;;;;;;17.80;4.03;;;;;;;;;;5276868;28;20481;-80
2022/11/10 05:37:07;;;;;;;17.60;4.53;;;;;;;;;;5276332;28;20060;-80
2022/11/10 05:39:38;;;;;;;17.80;4.20;;;;;;;;;;5276076;28;20021;-80
2022/11/10 05:42:09;;;;;;;24.40;4.93;;;;;;;;;;5276657;28;20037;-80
2022/11/10 05:44:40;;;;;;;17.07;4.40;;;;;;;;;;5275781;28;20082;-80
2022/11/10 05:47:11;;;;;;;23.80;5.43;;;;;;;;;;5277263;28;20049;-80
2022/11/10 05:49:42;;;;;;;22.33;4.77;;;;;;;;;;5261156;28;20299;-80
2022/11/10 05:52:14;;;;;;;20.30;4.60;;;;;;;;;;5274123;28;20620;-79
2022/11/10 05:54:45;;;;;;;19.73;4.15;;;;;;;;;;5274492;28;20280;-80
2022/11/10 05:57:16;;;;;;;23.37;4.67;;;;;;;;;;5276269;28;20086;-80
2022/11/10 05:59:47;;;;;;;17.27;5.30;;;;;;;;;;5276822;28;20280;-80
2022/11/10 06:02:18;;;;;;;22.50;5.13;;;;;;;;;;5277181;28;20382;-80
2022/11/10 06:04:50;;;;;;;18.70;4.43;;;;;;;;;;5276612;28;20282;-80
2022/11/10 06:07:21;;;;;;;24.20;5.07;;;;;;;;;;5277548;28;20280;-80
2022/11/10 06:09:52;;;;;;;19.92;4.22;;;;;;;;;;5276458;28;20072;-79
2022/11/10 06:12:29;;;;;;;15.37;4.17;;;;;;;;;;5275309;28;20032;-79
2022/11/10 06:15:01;;;;;;;;;;;;;;;;;;5259312;28;20409;-80
2022/11/10 06:17:32;;;;;;;20.92;4.15;;;;;;;;;;5272215;28;19952;-80
2022/11/10 06:20:04;;;;;;;24.98;5.80;;;;;;;;;;5276756;28;21922;-80
2022/11/10 06:22:35;;;;;;;22.70;4.40;;;;;;;;;;5275080;28;20040;-80
2022/11/10 06:25:07;;;;;;;26.35;5.30;;;;;;;;;;5275472;28;20032;-79
2022/11/10 06:27:41;;;;;;;24.75;5.28;;;;;;;;;;5276112;28;20108;-80
2022/11/10 06:30:13;;;;;;;18.30;4.57;;;;;;;;;;5255811;28;20033;-79
2022/11/10 06:32:44;;;;;;;25.35;5.07;;;;;;;;;;5274860;28;20456;-80
2022/11/10 06:35:15;;;;;;;24.23;4.57;;;;;;;;;;5274710;28;20032;-80
2022/11/10 06:38:02;;;;;;;26.83;5.30;;;;;;;;;;5285351;28;20044;-80
2022/11/10 06:40:33;;;;;;;18.70;4.50;;;;;;;;;;5275998;28;20092;-80
2022/11/10 06:43:05;;;;;;;27.83;5.40;;;;;;;;;;5258871;28;20043;-80
2022/11/10 06:45:36;;;;;;;21.38;4.78;;;;;;;;;;5277815;28;20025;-79
2022/11/10 06:48:12;;;;;;;24.43;6.07;;;;;;;;;;5267737;28;20446;-80
2022/11/10 06:50:43;;;;;;;22.35;4.85;;;;;;;;;;5271174;28;20271;-80
2022/11/10 06:53:15;;;;;;;20.17;4.20;;;;;;;;;;5271111;28;20544;-79
2022/11/10 06:55:47;;;;;;;19.45;4.40;;;;;;;;;;5271231;28;20279;-80
2022/11/10 06:58:18;;;;;;;27.77;5.07;;;;;;;;;;5273924;28;20082;-80
2022/11/10 07:00:52;;;;;;;27.30;5.85;;;;;;;;;;5257294;28;20433;-80
2022/11/10 07:03:23;;;;;;;32.05;8.73;;;;;;;;;;5267706;28;20025;-80
2022/11/10 07:05:55;;;;;;;39.67;8.73;;;;;;;;;;5263397;28;20489;-80
2022/11/10 07:08:26;;;;;;;31.03;7.97;;;;;;;;;;5281851;28;20273;-79
2022/11/10 07:10:57;;;;;;;37.07;7.40;;;;;;;;;;5277523;28;20271;-80
2022/11/10 07:13:28;;;;;;;31.90;6.70;;;;;;;;;;5269977;28;20383;-80
2022/11/10 07:16:02;;;;;;;28.40;5.83;;;;;;;;;;5280366;28;20664;-80
2022/11/10 07:18:34;;;;;;;28.83;5.40;;;;;;;;;;5280004;28;20296;-80
2022/11/10 07:21:05;;;;;;;20.23;5.10;;;;;;;;;;5281696;28;20032;-80
2022/11/10 07:23:36;;;;;;;24.95;4.45;;;;;;;;;;5273631;28;20029;-80
2022/11/10 07:26:08;;;;;;;18.92;4.57;;;;;;;;;;5267152;28;20102;-80
2022/11/10 07:28:39;;;;;;;27.87;5.00;;;;;;;;;;5276847;28;20034;-80
2022/11/10 07:31:10;;;;;;;24.05;5.50;;;;;;;;;;5276758;28;20342;-79
2022/11/10 07:33:42;;;;;;;16.25;4.65;;;;;;;;;;5262464;28;20045;-79
2022/11/10 07:36:14;;;;;;;24.27;4.68;;;;;;;;;;5276101;28;20033;-79
2022/11/10 07:38:45;;;;;;;19.10;4.27;;;;;;;;;;5262176;28;20029;-79
2022/11/10 07:41:16;;;;;;;17.93;4.70;;;;;;;;;;5278437;28;20508;-79
2022/11/10 07:43:47;;;;;;;17.75;3.88;;;;;;;;;;5274422;28;20537;-79
2022/11/10 07:46:18;;;;;;;14.43;3.83;;;;;;;;;;5280033;28;20410;-80
2022/11/10 07:48:50;;;;;;;17.43;3.77;;;;;;;;;;5281850;28;20025;-79
2022/11/10 07:51:21;;;;;;;19.45;3.97;;;;;;;;;;5282130;28;20033;-79
2022/11/10 07:53:52;;;;;;;13.30;4.13;;;;;;;;;;5282236;28;20366;-80
2022/11/10 07:56:23;;;;;;;13.83;3.17;;;;;;;;;;5281665;28;20288;-80
2022/11/10 07:58:54;;;;;;;15.33;4.27;;;;;;;;;;5284575;28;20329;-80
2022/11/10 08:01:26;;;;;;;13.60;3.37;;;;;;;;;;5285627;28;20624;-80
2022/11/10 08:03:57;;;;;;;13.90;3.30;;;;;;;;;;5272368;28;20269;-82
2022/11/10 08:06:28;;;;;;;16.53;4.27;;;;;;;;;;5264550;28;20068;-80
2022/11/10 08:08:59;;;;;;;12.37;3.43;;;;;;;;;;5263996;28;20884;-79
2022/11/10 08:11:30;;;;;;;17.73;4.03;;;;;;;;;;5264342;28;20037;-79
2022/11/10 08:14:02;;;;;;;15.05;3.70;;;;;;;;;;5264504;28;20537;-79
2022/11/10 08:16:33;;;;;;;19.43;3.90;;;;;;;;;;5265240;28;20157;-79
2022/11/10 08:19:04;;;;;;;19.37;3.97;;;;;;;;;;5278392;28;20029;-80
2022/11/10 08:21:35;;;;;;;17.83;3.57;;;;;;;;;;5275375;28;20791;-80
2022/11/10 08:24:07;;;;;;;18.65;4.07;;;;;;;;;;5286202;28;20268;-81
2022/11/10 08:26:38;;;;;;;19.35;3.90;;;;;;;;;;5285858;28;20354;-80
2022/11/10 08:29:09;;;;;;;16.47;4.90;;;;;;;;;;5266807;28;20025;-80
2022/11/10 08:31:40;;;;;;;29.15;6.05;;;;;;;;;;5285258;28;20640;-81
2022/11/10 08:34:11;;;;;;;20.08;4.70;;;;;;;;;;5283998;28;20021;-81
2022/11/10 08:36:43;;;;;;;15.40;3.75;;;;;;;;;;5284673;28;20102;-81
2022/11/10 08:39:14;;;;;;;26.83;4.38;;;;;;;;;;5266296;28;20369;-80
2022/11/10 08:41:45;;;;;;;20.02;3.88;;;;;;;;;;5266922;28;20041;-81
2022/11/10 08:44:17;;;;;;;19.35;4.05;;;;;;;;;;5285229;28;20029;-81
2022/11/10 08:46:48;;;;;;;19.37;3.90;;;;;;;;;;5284818;28;20056;-81
2022/11/10 08:49:19;;;;;;;17.70;4.57;;;;;;;;;;5265772;28;20283;-81
2022/11/10 08:51:50;;;;;;;25.77;5.03;;;;;;;;;;5261219;28;20384;-81
2022/11/10 08:54:21;;;;;;;18.53;4.70;;;;;;;;;;5262476;28;20025;-81
2022/11/10 08:56:52;;;;;;;16.80;4.23;;;;;;;;;;5262235;28;20284;-81
2022/11/10 08:59:24;;;;;;;14.53;4.07;;;;;;;;;;5263701;28;20018;-81
2022/11/10 09:01:56;;;;;;;17.00;3.75;;;;;;;;;;5283290;28;20029;-81
2022/11/10 09:04:27;;;;;;;13.73;4.30;;;;;;;;;;5283452;28;20036;-80
2022/11/10 09:06:58;;;;;;;20.60;3.73;;;;;;;;;;5284650;28;20025;-80
2022/11/10 09:09:29;;;;;;;14.93;3.90;;;;;;;;;;5264776;28;20308;-80
2022/11/10 09:12:01;;;;;;;18.93;3.93;;;;;;;;;;5266032;28;20032;-80
2022/11/10 09:14:32;;;;;;;16.43;3.37;;;;;;;;;;5284226;28;20279;-80
2022/11/10 09:17:03;;;;;;;20.02;4.43;;;;;;;;;;5284618;28;20361;-80
2022/11/10 09:19:34;;;;;;;14.57;3.70;;;;;;;;;;5284476;28;20033;-80
2022/11/10 09:22:15;;;;;;;16.37;4.27;;;;;;;;;;5266818;28;20403;-85
2022/11/10 09:24:46;;;;;;;17.65;3.45;;;;;;;;;;5282808;28;20020;-80
2022/11/10 09:27:17;;;;;;;22.80;4.15;;;;;;;;;;5266383;28;20113;-80
2022/11/10 09:29:49;;;;;;;19.17;4.25;;;;;;;;;;5277568;28;20076;-80
2022/11/10 09:32:20;;;;;;;15.27;4.27;;;;;;;;;;5266614;28;20036;-81
2022/11/10 09:34:51;;;;;;;14.27;3.27;;;;;;;;;;5273403;28;20252;-81
2022/11/10 09:37:22;;;;;;;21.70;3.77;;;;;;;;;;5281912;28;20759;-80
2022/11/10 09:39:54;;;;;;;16.30;3.25;;;;;;;;;;5266028;28;20283;-87
2022/11/10 09:42:26;;;;;;;14.85;3.63;;;;;;;;;;5264703;28;20409;-80
2022/11/10 09:45:01;;;;;;;14.45;3.75;;;;;;;;;;5282865;28;20029;-80
2022/11/10 09:47:39;;;;;;;14.65;3.53;;;;;;;;;;5264482;28;20489;-80
2022/11/10 09:50:17;;;;;;;10.65;2.92;;;;;;;;;;5264927;28;20381;-80
2022/11/10 09:52:48;;;;;;;17.00;4.55;;;;;;;;;;5281835;28;20390;-80
2022/11/10 09:55:25;;;;;;;11.38;3.75;;;;;;;;;;5282834;28;20128;-81
2022/11/10 09:57:57;;;;;;;10.80;2.70;;;;;;;;;;5283282;28;20103;-81
2022/11/10 10:00:30;;;;;;;16.77;3.78;;;;;;;;;;5265043;28;20051;-80
2022/11/10 10:03:02;;;;;;;13.02;3.50;;;;;;;;;;5282737;28;20116;-81
2022/11/10 10:05:50;;;;;;;15.73;3.45;;;;;;;;;;5264999;28;20025;-81
2022/11/10 10:08:40;;;;;;;13.60;3.08;;;;;;;;;;5283304;28;20043;-81
2022/11/10 10:11:14;;;;;;;11.43;3.00;;;;;;;;;;5282913;28;20047;-81
2022/11/10 10:13:53;;;;;;;11.07;2.92;;;;;;;;;;5283473;28;20397;-81
2022/11/10 10:16:27;;;;;;;15.77;3.92;;;;;;;;;;5282166;28;20021;-81
2022/11/10 10:19:01;;;;;;;9.48;3.20;;;;;;;;;;5263884;28;20111;-80
2022/11/10 10:21:51;;;;;;;10.75;3.05;;;;;;;;;;5283421;28;20559;-81
2022/11/10 10:24:26;;;;;;;9.20;2.90;;;;;;;;;;5282567;28;20019;-81
2022/11/10 10:26:59;;;;;;;14.23;3.60;;;;;;;;;;5282576;28;20028;-81
2022/11/10 10:29:36;;;;;;;12.27;3.03;;;;;;;;;;5282967;28;20104;-81
2022/11/10 10:32:15;;;;;;;10.52;3.00;;;;;;;;;;5262298;28;20020;-81
2022/11/10 10:34:46;;;;;;;9.75;2.60;;;;;;;;;;5282281;28;20037;-81
2022/11/10 10:37:38;;;;;;;10.70;2.77;;;;;;;;;;5283081;28;20025;-81
2022/11/10 10:40:14;;;;;;;13.07;3.42;;;;;;;;;;5283017;28;20029;-81
2022/11/10 10:42:46;;;;;;;12.50;3.67;;;;;;;;;;5281781;28;20077;-81
2022/11/10 10:45:17;;;;;;;12.50;3.05;;;;;;;;;;5264536;28;20059;-81
2022/11/10 10:47:50;;;;;;;10.00;2.90;;;;;;;;;;5283018;28;20052;-81
2022/11/10 10:50:24;;;;;;;10.63;3.30;;;;;;;;;;5282685;28;20028;-81
2022/11/10 10:53:14;;;;;;;11.45;3.35;;;;;;;;;;5282392;28;20043;-81
2022/11/10 10:56:00;;;;;;;13.00;3.03;;;;;;;;;;5282509;28;20030;-80
2022/11/10 10:58:33;;;;;;;10.32;2.83;;;;;;;;;;5281582;28;20056;-80
2022/11/10 11:01:13;;;;;;;15.15;2.60;;;;;;;;;;5263731;28;20039;-80
2022/11/10 11:03:46;;;;;;;12.50;3.38;;;;;;;;;;5282517;28;20037;-80
2022/11/10 11:06:19;;;;;;;12.65;2.85;;;;;;;;;;5263917;28;20013;-80
2022/11/10 11:08:53;;;;;;;13.15;3.08;;;;;;;;;;5281166;28;20398;-80
2022/11/10 11:11:38;;;;;;;11.63;2.65;;;;;;;;;;5282208;28;20453;-80
2022/11/10 11:14:20;;;;;;;11.63;2.72;;;;;;;;;;5282522;28;20048;-80
2022/11/10 11:16:53;;;;;;;10.27;2.42;;;;;;;;;;5285235;28;20021;-81
2022/11/10 11:19:25;;;;;;;9.40;2.30;;;;;;;;;;5279077;28;20033;-81
2022/11/10 11:22:22;;;;;;;8.52;2.30;;;;;;;;;;5261123;28;20036;-81
2022/11/10 11:25:12;;;;;;;9.77;2.20;;;;;;;;;;5261135;28;20553;-81
2022/11/10 11:27:47;;;;;;;12.25;2.53;;;;;;;;;;5267477;28;20116;-81
2022/11/10 11:30:23;;;;;;;14.45;2.55;;;;;;;;;;5280655;28;20431;-81
2022/11/10 11:33:03;;;;;;;8.10;2.47;;;;;;;;;;5284341;28;20029;-81
2022/11/10 11:35:48;;;;;;;9.57;2.50;;;;;;;;;;5285504;28;20489;-81
2022/11/10 11:38:19;;;;;;;12.50;2.50;;;;;;;;;;5283753;28;20021;-81
2022/11/10 11:41:11;;;;;;;10.00;2.57;;;;;;;;;;5286238;28;20139;-81
2022/11/10 11:44:00;;;;;;;9.77;2.45;;;;;;;;;;5284497;28;20374;-81
2022/11/10 11:46:50;;;;;;;10.32;2.10;;;;;;;;;;5285101;28;20132;-81
2022/11/10 11:49:25;;;;;;;8.48;2.13;;;;;;;;;;5266289;28;20029;-81
2022/11/10 11:52:14;;;;;;;9.52;2.50;;;;;;;;;;5267053;28;20032;-81
2022/11/10 11:54:58;;;;;;;11.68;2.25;;;;;;;;;;5267030;28;20116;-81
2022/11/10 11:57:35;;;;;;;11.43;2.28;;;;;;;;;;5284345;28;20039;-81
2022/11/10 12:00:06;;;;;;;13.35;2.80;;;;;;;;;;5284628;28;20024;-81
2022/11/10 12:02:49;;;;;;;11.70;2.70;;;;;;;;;;5267302;28;20044;-81
2022/11/10 12:05:35;;;;;;;10.60;2.53;;;;;;;;;;5285400;28;20268;-81
2022/11/10 12:08:18;;;;;;;11.80;2.55;;;;;;;;;;5284233;28;20551;-81
2022/11/10 12:11:16;;;;;;;10.70;2.38;;;;;;;;;;5269366;28;20033;-81
2022/11/10 12:13:50;;;;;;;10.85;3.03;;;;;;;;;;5275155;28;20037;-81
2022/11/10 12:16:31;;;;;;;11.60;3.10;;;;;;;;;;5284700;28;20041;-81
2022/11/10 12:19:20;;;;;;;9.43;2.30;;;;;;;;;;5284374;28;20021;-81
2022/11/10 12:22:01;;;;;;;9.13;2.55;;;;;;;;;;5284935;28;20538;-82
2022/11/10 12:24:51;;;;;;;8.77;2.47;;;;;;;;;;5266366;28;20025;-82
2022/11/10 12:27:33;;;;;;;11.10;2.35;;;;;;;;;;5265586;28;20029;-82
2022/11/10 12:30:04;;;;;;;11.88;3.22;;;;;;;;;;5282685;28;20120;-81
2022/11/10 12:32:53;;;;;;;10.90;2.55;;;;;;;;;;5278135;28;20032;-82
2022/11/10 12:35:31;;;;;;;10.98;2.67;;;;;;;;;;5278569;28;20037;-81
2022/11/10 12:38:02;;;;;;;12.10;2.72;;;;;;;;;;5278047;28;20036;-81
2022/11/10 12:40:37;;;;;;;9.63;2.23;;;;;;;;;;5277613;28;20464;-81
2022/11/10 12:43:12;;;;;;;7.65;2.45;;;;;;;;;;5257542;28;20096;-81
2022/11/10 12:45:50;;;;;;;9.18;2.20;;;;;;;;;;5279821;28;20029;-81
2022/11/10 12:48:22;;;;;;;9.32;2.60;;;;;;;;;;5263771;28;20054;-81
2022/11/10 12:51:01;;;;;;;11.18;2.70;;;;;;;;;;5283993;28;20017;-81
2022/11/10 12:53:38;;;;;;;7.78;2.40;;;;;;;;;;5275427;28;20032;-81
2022/11/10 12:56:21;;;;;;;10.45;2.38;;;;;;;;;;5280002;28;20497;-82
2022/11/10 12:59:11;;;;;;;8.60;2.40;;;;;;;;;;5278670;28;20036;-81
2022/11/10 13:01:43;;;;;;;9.32;2.55;;;;;;;;;;5276149;28;20055;-81
2022/11/10 13:04:15;;;;;;;8.15;1.90;;;;;;;;;;5279222;28;20027;-82
2022/11/10 13:06:49;;;;;;;6.10;2.17;;;;;;;;;;5277960;28;20025;-82
2022/11/10 13:09:22;;;;;;;9.55;2.10;;;;;;;;;;5276616;28;20029;-82
2022/11/10 13:12:02;;;;;;;8.45;2.13;;;;;;;;;;5258856;28;20091;-81
2022/11/10 13:14:34;;;;;;;9.32;1.88;;;;;;;;;;5260461;28;20079;-82
2022/11/10 13:17:05;;;;;;;10.57;2.45;;;;;;;;;;5277113;28;20025;-81
2022/11/10 13:19:37;;;;;;;8.67;1.80;;;;;;;;;;5273728;28;20028;-81
2022/11/10 13:22:27;;;;;;;6.68;1.80;;;;;;;;;;5277610;28;20277;-81
2022/11/10 13:25:17;;;;;;;11.50;1.83;;;;;;;;;;5276923;28;20052;-81
2022/11/10 13:27:50;;;;;;;9.82;2.22;;;;;;;;;;5278747;28;20043;-81
2022/11/10 13:30:44;;;;;;;9.25;2.08;;;;;;;;;;5275691;28;20025;-81
2022/11/10 13:33:24;;;;;;;7.88;1.83;;;;;;;;;;5277066;28;20111;-81
2022/11/10 13:35:56;;;;;;;5.45;1.70;;;;;;;;;;5274340;28;20648;-79
2022/11/10 13:38:40;;;;;;;6.95;1.77;;;;;;;;;;5279302;28;20029;-81
2022/11/10 13:41:22;;;;;;;5.82;1.45;;;;;;;;;;5274714;28;20042;-81
2022/11/10 13:43:54;;;;;;;9.82;1.67;;;;;;;;;;5276106;28;20029;-82
2022/11/10 13:46:32;;;;;;;6.18;1.80;;;;;;;;;;5279530;28;20073;-81
2022/11/10 13:49:11;;;;;;;7.60;1.58;;;;;;;;;;5281867;28;20021;-81
2022/11/10 13:51:49;;;;;;;5.32;1.58;;;;;;;;;;5278927;28;20381;-80
2022/11/10 13:54:33;;;;;;;6.07;1.83;;;;;;;;;;5258855;28;20025;-80
2022/11/10 13:57:11;;;;;;;11.35;2.42;;;;;;;;;;5272300;28;20043;-81
2022/11/10 14:00:05;;;;;;;8.02;1.70;;;;;;;;;;5275314;28;20036;-80
2022/11/10 14:02:37;;;;;;;7.85;1.70;;;;;;;;;;5274707;28;20071;-80
2022/11/10 14:05:33;;;;;;;6.63;1.50;;;;;;;;;;5276643;28;20017;-81
2022/11/10 14:08:05;;;;;;;6.10;1.67;;;;;;;;;;5281658;28;20063;-80
2022/11/10 14:10:39;;;;;;;7.30;1.55;;;;;;;;;;5279108;28;20095;-80
2022/11/10 14:13:14;;;;;;;6.55;1.50;;;;;;;;;;5266480;28;20413;-81
2022/11/10 14:15:47;;;;;;;6.25;1.70;;;;;;;;;;5283651;28;20044;-80
2022/11/10 14:18:23;;;;;;;7.82;1.80;;;;;;;;;;5263618;28;20037;-80
2022/11/10 14:20:54;;;;;;;;;;;;;;;;;;5283525;28;20048;-80
2022/11/10 14:23:30;;;;;;;6.18;1.70;;;;;;;;;;5281447;28;19920;-80
2022/11/10 14:26:04;;;;;;;5.82;1.30;;;;;;;;;;5281351;28;20124;-80
2022/11/10 14:28:38;;;;;;;11.40;1.48;;;;;;;;;;5262692;28;20037;-80
2022/11/10 14:31:16;;;;;;;8.57;1.85;;;;;;;;;;5280013;28;20513;-80
2022/11/10 14:33:55;;;;;;;5.85;1.50;;;;;;;;;;5263317;28;20044;-80
2022/11/10 14:36:26;;;;;;;3.67;1.50;;;;;;;;;;5282553;28;20032;-81
2022/11/10 14:38:58;;;;;;;7.25;2.00;;;;;;;;;;5283753;28;20029;-80
2022/11/10 14:41:29;;;;;;;9.23;1.80;;;;;;;;;;5277350;28;20029;-80
2022/11/10 14:44:02;;;;;;;9.48;1.48;;;;;;;;;;5284159;28;20044;-80
2022/11/10 14:46:33;;;;;;;6.68;1.48;;;;;;;;;;5281313;28;20612;-80
2022/11/10 14:49:04;;;;;;;7.27;1.70;;;;;;;;;;5283482;28;20148;-80
2022/11/10 14:51:35;;;;;;;7.20;1.42;;;;;;;;;;5263823;28;20220;-80
2022/11/10 14:54:10;;;;;;;6.95;1.52;;;;;;;;;;5283172;28;20025;-81
2022/11/10 14:56:42;;;;;;;7.20;1.92;;;;;;;;;;5279076;28;20116;-81
2022/11/10 14:59:13;;;;;;;4.80;1.20;;;;;;;;;;5269049;28;20128;-81
2022/11/10 15:01:49;;;;;;;7.10;2.10;;;;;;;;;;5276652;28;20279;-81
2022/11/10 15:04:31;;;;;;;8.45;1.90;;;;;;;;;;5263644;28;20052;-81
2022/11/10 15:07:04;;;;;;;8.23;2.10;;;;;;;;;;5280427;28;20103;-81
2022/11/10 15:09:36;;;;;;;5.75;1.67;;;;;;;;;;5266281;28;20548;-81
2022/11/10 15:12:18;;;;;;;7.13;1.80;;;;;;;;;;5277879;28;20025;-81
2022/11/10 15:14:55;;;;;;;7.57;1.63;;;;;;;;;;5281554;28;20021;-81
2022/11/10 15:17:43;;;;;;;9.05;1.98;;;;;;;;;;5276642;28;20033;-81
2022/11/10 15:20:28;;;;;;;8.18;1.75;;;;;;;;;;5264821;28;20052;-81
2022/11/10 15:23:00;;;;;;;10.32;2.47;;;;;;;;;;5287617;28;20032;-81
2022/11/10 15:25:38;;;;;;;6.40;1.80;;;;;;;;;;5282839;28;20044;-81